Archival Weather

King Khaled Intl

King Khaled Intl, Saudi Arabia (OERK)

Report from: Thursday, February 22, 2024 3:00 PM +03
Current time: Wednesday, April 24, 2024 10:51 PM +03

Current weather – Weather history – Daily summaries
Weather forecast

Temperature25.0°C (77.0°F)
Dew point1.0°C (33.8°F)
Winds 7 kts (3.6 m/s, 8.1 mph) Southeast (140°)
Clouds Sky clear
Altimeter30.09 in.Hg (1019 mB)
Relative humidity21 %
Density altitude1,069 ft. (326 m)
Remarks Ceiling and visibility OK
No significant changes expected in the next two hours
Flight conditions Visual Meteorological Conditions
Raw dataOERK 221200Z 14007KT CAVOK 25/01 Q1019 NOSIG
An error has occurred. This application may no longer respond until reloaded. Reload 🗙